Banner, Wyoming
Current Conditions -  °F | °C
As of 10:53 PM on Tuesday 25 Nov 2014 (Local Time) from KSHR Reporting Station
Overcast Overcast  
Wind Chill: 16°   Ceiling: 8000
Heat Index: 29°   Visibility: 10mi
Dew Point: 22°   Wind: 18mph
Humidity: 75%   Direction: 310°NW
Pressure: 30.14"   Gusts: NA
Location:  44.6°N, 106.87°W
Report Text: KSHR 260553Z AUTO 31016KT 10SM OVC080 M02/M06 A3014 RMK AO2 PK WND 30026/0529 SLP238 60002 T10171056 11006 21017 51010 TSNO
Loading
Personal Weather Stations






























Interactive Weather Map New forecast layout! Learn more

10-Day Weather Forecast

Advertisements
Track Severe Weather on mobile